sensor_id;sensor_type;location;lat;lon;timestamp;P1;durP1;ratioP1;P2;durP2;ratioP2
9807;SDS011;4943;52.550;13.462;2023-04-03T00:01:13;124.77;;;42.60;;
9807;SDS011;4943;52.550;13.462;2023-04-03T00:03:41;126.43;;;42.17;;
9807;SDS011;4943;52.550;13.462;2023-04-03T00:06:10;128.07;;;43.70;;
9807;SDS011;4943;52.550;13.462;2023-04-03T00:08:39;125.37;;;42.07;;
9807;SDS011;4943;52.550;13.462;2023-04-03T00:11:08;122.80;;;41.90;;
9807;SDS011;4943;52.550;13.462;2023-04-03T00:13:37;124.83;;;42.20;;
9807;SDS011;4943;52.550;13.462;2023-04-03T00:16:08;125.23;;;43.07;;
9807;SDS011;4943;52.550;13.462;2023-04-03T00:18:38;120.57;;;41.43;;
9807;SDS011;4943;52.550;13.462;2023-04-03T00:21:07;125.67;;;43.43;;
9807;SDS011;4943;52.550;13.462;2023-04-03T00:23:37;122.40;;;41.43;;
9807;SDS011;4943;52.550;13.462;2023-04-03T00:26:05;126.47;;;43.10;;
9807;SDS011;4943;52.550;13.462;2023-04-03T00:28:33;124.00;;;42.37;;
9807;SDS011;4943;52.550;13.462;2023-04-03T00:31:01;122.77;;;42.87;;
9807;SDS011;4943;52.550;13.462;2023-04-03T00:33:31;123.60;;;41.83;;
9807;SDS011;4943;52.550;13.462;2023-04-03T00:35:59;122.17;;;42.17;;
9807;SDS011;4943;52.550;13.462;2023-04-03T00:38:32;119.43;;;41.30;;
9807;SDS011;4943;52.550;13.462;2023-04-03T00:41:00;121.73;;;42.23;;
9807;SDS011;4943;52.550;13.462;2023-04-03T00:43:29;123.20;;;41.40;;
9807;SDS011;4943;52.550;13.462;2023-04-03T00:45:58;122.37;;;42.70;;
9807;SDS011;4943;52.550;13.462;2023-04-03T00:48:27;121.03;;;41.47;;
9807;SDS011;4943;52.550;13.462;2023-04-03T00:51:00;118.63;;;41.23;;
9807;SDS011;4943;52.550;13.462;2023-04-03T00:53:30;120.90;;;41.13;;
9807;SDS011;4943;52.550;13.462;2023-04-03T00:56:00;122.37;;;41.83;;
9807;SDS011;4943;52.550;13.462;2023-04-03T00:58:31;124.67;;;42.97;;
9807;SDS011;4943;52.550;13.462;2023-04-03T01:01:05;120.07;;;42.37;;
9807;SDS011;4943;52.550;13.462;2023-04-03T01:03:35;118.63;;;41.77;;
9807;SDS011;4943;52.550;13.462;2023-04-03T01:06:04;118.87;;;42.27;;
9807;SDS011;4943;52.550;13.462;2023-04-03T01:08:33;119.73;;;41.53;;
9807;SDS011;4943;52.550;13.462;2023-04-03T01:11:02;119.00;;;42.40;;
9807;SDS011;4943;52.550;13.462;2023-04-03T01:13:32;119.37;;;41.17;;
9807;SDS011;4943;52.550;13.462;2023-04-03T01:16:00;121.47;;;41.57;;
9807;SDS011;4943;52.550;13.462;2023-04-03T01:18:29;115.97;;;40.17;;
9807;SDS011;4943;52.550;13.462;2023-04-03T01:21:18;118.43;;;41.97;;
9807;SDS011;4943;52.550;13.462;2023-04-03T01:24:10;117.90;;;41.10;;
9807;SDS011;4943;52.550;13.462;2023-04-03T01:26:48;116.83;;;40.70;;
9807;SDS011;4943;52.550;13.462;2023-04-03T01:29:17;113.27;;;40.03;;
9807;SDS011;4943;52.550;13.462;2023-04-03T01:31:50;115.27;;;40.03;;
9807;SDS011;4943;52.550;13.462;2023-04-03T01:34:19;123.47;;;40.87;;
9807;SDS011;4943;52.550;13.462;2023-04-03T01:36:47;113.50;;;40.30;;
9807;SDS011;4943;52.550;13.462;2023-04-03T01:39:16;117.20;;;41.97;;
9807;SDS011;4943;52.550;13.462;2023-04-03T01:41:44;113.83;;;40.13;;
9807;SDS011;4943;52.550;13.462;2023-04-03T01:44:13;111.07;;;40.10;;
9807;SDS011;4943;52.550;13.462;2023-04-03T01:46:41;113.67;;;40.00;;
9807;SDS011;4943;52.550;13.462;2023-04-03T01:49:11;113.73;;;41.17;;
9807;SDS011;4943;52.550;13.462;2023-04-03T01:51:39;111.30;;;39.73;;
9807;SDS011;4943;52.550;13.462;2023-04-03T01:54:07;111.43;;;40.40;;
9807;SDS011;4943;52.550;13.462;2023-04-03T01:56:35;110.93;;;39.10;;
9807;SDS011;4943;52.550;13.462;2023-04-03T01:59:04;111.27;;;40.83;;
9807;SDS011;4943;52.550;13.462;2023-04-03T02:01:32;112.73;;;39.60;;
9807;SDS011;4943;52.550;13.462;2023-04-03T02:04:00;113.67;;;39.80;;
9807;SDS011;4943;52.550;13.462;2023-04-03T02:06:30;112.77;;;39.70;;
9807;SDS011;4943;52.550;13.462;2023-04-03T02:08:58;110.67;;;39.23;;
9807;SDS011;4943;52.550;13.462;2023-04-03T02:11:26;109.97;;;39.77;;
9807;SDS011;4943;52.550;13.462;2023-04-03T02:13:54;109.73;;;39.33;;
9807;SDS011;4943;52.550;13.462;2023-04-03T02:16:22;108.77;;;39.57;;
9807;SDS011;4943;52.550;13.462;2023-04-03T02:18:50;115.07;;;40.77;;
9807;SDS011;4943;52.550;13.462;2023-04-03T02:21:18;110.20;;;41.13;;
9807;SDS011;4943;52.550;13.462;2023-04-03T02:23:47;116.93;;;39.67;;
9807;SDS011;4943;52.550;13.462;2023-04-03T02:26:16;108.90;;;40.33;;
9807;SDS011;4943;52.550;13.462;2023-04-03T02:28:44;106.10;;;38.43;;
9807;SDS011;4943;52.550;13.462;2023-04-03T02:31:13;107.10;;;39.37;;
9807;SDS011;4943;52.550;13.462;2023-04-03T02:33:41;107.10;;;38.90;;
9807;SDS011;4943;52.550;13.462;2023-04-03T02:36:09;102.40;;;39.00;;
9807;SDS011;4943;52.550;13.462;2023-04-03T02:38:37;101.10;;;38.10;;
9807;SDS011;4943;52.550;13.462;2023-04-03T02:41:08;105.80;;;39.83;;
9807;SDS011;4943;52.550;13.462;2023-04-03T02:43:37;102.23;;;38.40;;
9807;SDS011;4943;52.550;13.462;2023-04-03T02:46:06;105.17;;;39.63;;
9807;SDS011;4943;52.550;13.462;2023-04-03T02:48:34;102.93;;;38.53;;
9807;SDS011;4943;52.550;13.462;2023-04-03T02:51:02;105.07;;;38.53;;
9807;SDS011;4943;52.550;13.462;2023-04-03T02:53:30;103.10;;;38.33;;
9807;SDS011;4943;52.550;13.462;2023-04-03T02:55:58;102.43;;;37.80;;
9807;SDS011;4943;52.550;13.462;2023-04-03T02:58:28;103.80;;;38.77;;
9807;SDS011;4943;52.550;13.462;2023-04-03T03:00:56;103.80;;;38.70;;
9807;SDS011;4943;52.550;13.462;2023-04-03T03:03:24;100.57;;;37.50;;
9807;SDS011;4943;52.550;13.462;2023-04-03T03:06:00;100.17;;;37.30;;
9807;SDS011;4943;52.550;13.462;2023-04-03T03:08:29;102.37;;;38.20;;
9807;SDS011;4943;52.550;13.462;2023-04-03T03:10:57;98.10;;;37.37;;
9807;SDS011;4943;52.550;13.462;2023-04-03T03:13:25;101.70;;;37.67;;
9807;SDS011;4943;52.550;13.462;2023-04-03T03:15:55;100.53;;;37.40;;
9807;SDS011;4943;52.550;13.462;2023-04-03T03:18:23;102.57;;;38.90;;
9807;SDS011;4943;52.550;13.462;2023-04-03T03:20:51;97.40;;;37.10;;
9807;SDS011;4943;52.550;13.462;2023-04-03T03:23:20;97.40;;;38.37;;
9807;SDS011;4943;52.550;13.462;2023-04-03T03:25:53;98.67;;;37.43;;
9807;SDS011;4943;52.550;13.462;2023-04-03T03:28:22;101.47;;;39.10;;
9807;SDS011;4943;52.550;13.462;2023-04-03T03:30:50;99.80;;;37.37;;
9807;SDS011;4943;52.550;13.462;2023-04-03T03:33:19;97.77;;;37.80;;
9807;SDS011;4943;52.550;13.462;2023-04-03T03:35:48;97.23;;;36.97;;
9807;SDS011;4943;52.550;13.462;2023-04-03T03:38:16;98.63;;;38.40;;
9807;SDS011;4943;52.550;13.462;2023-04-03T03:40:44;99.70;;;38.03;;
9807;SDS011;4943;52.550;13.462;2023-04-03T03:43:12;99.50;;;38.13;;
9807;SDS011;4943;52.550;13.462;2023-04-03T03:45:40;95.17;;;37.57;;
9807;SDS011;4943;52.550;13.462;2023-04-03T03:48:08;95.17;;;37.93;;
9807;SDS011;4943;52.550;13.462;2023-04-03T03:50:37;96.63;;;37.27;;
9807;SDS011;4943;52.550;13.462;2023-04-03T03:53:05;99.60;;;38.93;;
9807;SDS011;4943;52.550;13.462;2023-04-03T03:55:34;96.23;;;37.13;;
9807;SDS011;4943;52.550;13.462;2023-04-03T03:58:02;98.33;;;37.83;;
9807;SDS011;4943;52.550;13.462;2023-04-03T04:00:30;93.27;;;36.60;;
9807;SDS011;4943;52.550;13.462;2023-04-03T04:02:58;97.03;;;37.47;;
9807;SDS011;4943;52.550;13.462;2023-04-03T04:05:27;96.90;;;36.30;;
9807;SDS011;4943;52.550;13.462;2023-04-03T04:07:56;97.27;;;37.00;;
9807;SDS011;4943;52.550;13.462;2023-04-03T04:10:24;99.67;;;39.83;;
9807;SDS011;4943;52.550;13.462;2023-04-03T04:12:52;92.20;;;36.43;;
9807;SDS011;4943;52.550;13.462;2023-04-03T04:15:23;108.33;;;38.43;;
9807;SDS011;4943;52.550;13.462;2023-04-03T04:17:52;82.73;;;34.63;;
9807;SDS011;4943;52.550;13.462;2023-04-03T04:20:20;82.83;;;35.63;;
9807;SDS011;4943;52.550;13.462;2023-04-03T04:22:48;76.17;;;33.00;;
9807;SDS011;4943;52.550;13.462;2023-04-03T04:25:17;77.43;;;34.47;;
9807;SDS011;4943;52.550;13.462;2023-04-03T04:27:45;74.00;;;32.37;;
9807;SDS011;4943;52.550;13.462;2023-04-03T04:30:14;76.77;;;34.90;;
9807;SDS011;4943;52.550;13.462;2023-04-03T04:32:42;75.97;;;34.77;;
9807;SDS011;4943;52.550;13.462;2023-04-03T04:35:10;76.80;;;33.57;;
9807;SDS011;4943;52.550;13.462;2023-04-03T04:37:42;73.33;;;33.40;;
9807;SDS011;4943;52.550;13.462;2023-04-03T04:40:10;81.30;;;33.83;;
9807;SDS011;4943;52.550;13.462;2023-04-03T04:42:39;77.93;;;34.23;;
9807;SDS011;4943;52.550;13.462;2023-04-03T04:45:08;75.57;;;33.17;;
9807;SDS011;4943;52.550;13.462;2023-04-03T04:47:36;77.77;;;33.17;;
9807;SDS011;4943;52.550;13.462;2023-04-03T04:50:05;84.60;;;34.60;;
9807;SDS011;4943;52.550;13.462;2023-04-03T04:52:33;80.37;;;34.40;;
9807;SDS011;4943;52.550;13.462;2023-04-03T04:55:01;87.13;;;35.30;;
9807;SDS011;4943;52.550;13.462;2023-04-03T04:57:30;82.07;;;34.93;;
9807;SDS011;4943;52.550;13.462;2023-04-03T04:59:59;85.03;;;34.47;;
9807;SDS011;4943;52.550;13.462;2023-04-03T05:02:27;87.27;;;36.70;;
9807;SDS011;4943;52.550;13.462;2023-04-03T05:04:55;84.27;;;35.60;;
9807;SDS011;4943;52.550;13.462;2023-04-03T05:07:23;84.13;;;36.43;;
9807;SDS011;4943;52.550;13.462;2023-04-03T05:09:51;85.60;;;35.33;;
9807;SDS011;4943;52.550;13.462;2023-04-03T05:12:19;83.27;;;36.00;;
9807;SDS011;4943;52.550;13.462;2023-04-03T05:14:48;87.10;;;36.27;;
9807;SDS011;4943;52.550;13.462;2023-04-03T05:17:17;85.23;;;36.23;;
9807;SDS011;4943;52.550;13.462;2023-04-03T05:19:45;84.27;;;35.03;;
9807;SDS011;4943;52.550;13.462;2023-04-03T05:22:13;84.23;;;35.73;;
9807;SDS011;4943;52.550;13.462;2023-04-03T05:24:41;86.53;;;34.20;;
9807;SDS011;4943;52.550;13.462;2023-04-03T05:27:09;92.03;;;35.93;;
9807;SDS011;4943;52.550;13.462;2023-04-03T05:29:37;85.70;;;35.13;;
9807;SDS011;4943;52.550;13.462;2023-04-03T05:32:05;88.00;;;35.50;;
9807;SDS011;4943;52.550;13.462;2023-04-03T05:34:35;88.90;;;36.03;;
9807;SDS011;4943;52.550;13.462;2023-04-03T05:37:03;86.00;;;36.40;;
9807;SDS011;4943;52.550;13.462;2023-04-03T05:39:32;85.67;;;36.23;;
9807;SDS011;4943;52.550;13.462;2023-04-03T05:42:00;85.23;;;35.20;;
9807;SDS011;4943;52.550;13.462;2023-04-03T05:44:28;84.80;;;36.33;;
9807;SDS011;4943;52.550;13.462;2023-04-03T05:46:56;83.47;;;35.40;;
9807;SDS011;4943;52.550;13.462;2023-04-03T05:49:24;83.97;;;36.57;;
9807;SDS011;4943;52.550;13.462;2023-04-03T05:51:53;83.90;;;35.80;;
9807;SDS011;4943;52.550;13.462;2023-04-03T05:54:23;85.80;;;37.40;;
9807;SDS011;4943;52.550;13.462;2023-04-03T05:56:52;87.57;;;37.40;;
9807;SDS011;4943;52.550;13.462;2023-04-03T05:59:20;87.53;;;37.50;;
9807;SDS011;4943;52.550;13.462;2023-04-03T06:01:49;91.27;;;37.60;;
9807;SDS011;4943;52.550;13.462;2023-04-03T06:04:17;89.13;;;36.37;;
9807;SDS011;4943;52.550;13.462;2023-04-03T06:06:46;88.20;;;36.37;;
9807;SDS011;4943;52.550;13.462;2023-04-03T06:09:19;91.57;;;38.33;;
9807;SDS011;4943;52.550;13.462;2023-04-03T06:11:49;93.37;;;37.60;;
9807;SDS011;4943;52.550;13.462;2023-04-03T06:14:17;92.93;;;38.07;;
9807;SDS011;4943;52.550;13.462;2023-04-03T06:16:45;94.40;;;37.97;;
9807;SDS011;4943;52.550;13.462;2023-04-03T06:19:14;95.93;;;38.00;;
9807;SDS011;4943;52.550;13.462;2023-04-03T06:21:42;98.67;;;37.83;;
9807;SDS011;4943;52.550;13.462;2023-04-03T06:24:11;93.50;;;37.00;;
9807;SDS011;4943;52.550;13.462;2023-04-03T06:26:43;100.07;;;40.00;;
9807;SDS011;4943;52.550;13.462;2023-04-03T06:29:11;100.27;;;39.13;;
9807;SDS011;4943;52.550;13.462;2023-04-03T06:31:39;113.10;;;39.93;;
9807;SDS011;4943;52.550;13.462;2023-04-03T06:34:07;101.70;;;38.67;;
9807;SDS011;4943;52.550;13.462;2023-04-03T06:36:37;100.00;;;38.77;;
9807;SDS011;4943;52.550;13.462;2023-04-03T06:39:05;104.20;;;39.93;;
9807;SDS011;4943;52.550;13.462;2023-04-03T06:41:34;104.63;;;39.40;;
9807;SDS011;4943;52.550;13.462;2023-04-03T06:44:04;104.53;;;39.60;;
9807;SDS011;4943;52.550;13.462;2023-04-03T06:46:32;105.93;;;40.33;;
9807;SDS011;4943;52.550;13.462;2023-04-03T06:49:00;108.40;;;40.60;;
9807;SDS011;4943;52.550;13.462;2023-04-03T06:51:28;111.10;;;41.87;;
9807;SDS011;4943;52.550;13.462;2023-04-03T06:53:58;121.27;;;42.20;;
9807;SDS011;4943;52.550;13.462;2023-04-03T06:56:27;116.60;;;43.90;;
9807;SDS011;4943;52.550;13.462;2023-04-03T06:58:55;120.73;;;43.33;;
9807;SDS011;4943;52.550;13.462;2023-04-03T07:01:26;121.70;;;43.27;;
9807;SDS011;4943;52.550;13.462;2023-04-03T07:03:55;120.20;;;42.27;;
9807;SDS011;4943;52.550;13.462;2023-04-03T07:06:23;122.03;;;44.33;;
9807;SDS011;4943;52.550;13.462;2023-04-03T07:08:53;120.90;;;42.77;;
9807;SDS011;4943;52.550;13.462;2023-04-03T07:11:22;124.47;;;44.93;;
9807;SDS011;4943;52.550;13.462;2023-04-03T07:13:50;125.47;;;43.00;;
9807;SDS011;4943;52.550;13.462;2023-04-03T07:16:18;132.13;;;46.77;;
9807;SDS011;4943;52.550;13.462;2023-04-03T07:18:48;137.73;;;46.47;;
9807;SDS011;4943;52.550;13.462;2023-04-03T07:21:16;145.03;;;48.50;;
9807;SDS011;4943;52.550;13.462;2023-04-03T07:23:44;151.10;;;48.23;;
9807;SDS011;4943;52.550;13.462;2023-04-03T07:26:12;154.20;;;48.93;;
9807;SDS011;4943;52.550;13.462;2023-04-03T07:28:40;148.03;;;48.73;;
9807;SDS011;4943;52.550;13.462;2023-04-03T07:31:10;155.53;;;50.27;;
9807;SDS011;4943;52.550;13.462;2023-04-03T07:33:40;153.87;;;49.43;;
9807;SDS011;4943;52.550;13.462;2023-04-03T07:36:11;145.93;;;48.30;;
9807;SDS011;4943;52.550;13.462;2023-04-03T07:38:43;142.23;;;49.10;;
9807;SDS011;4943;52.550;13.462;2023-04-03T07:41:12;145.93;;;48.57;;
9807;SDS011;4943;52.550;13.462;2023-04-03T07:43:43;145.13;;;50.03;;
9807;SDS011;4943;52.550;13.462;2023-04-03T07:46:12;142.10;;;47.87;;
9807;SDS011;4943;52.550;13.462;2023-04-03T07:48:40;141.13;;;49.77;;
9807;SDS011;4943;52.550;13.462;2023-04-03T07:51:10;137.17;;;48.17;;
9807;SDS011;4943;52.550;13.462;2023-04-03T07:53:39;146.73;;;49.60;;
9807;SDS011;4943;52.550;13.462;2023-04-03T07:56:07;153.43;;;52.07;;
9807;SDS011;4943;52.550;13.462;2023-04-03T07:58:35;151.83;;;52.00;;
9807;SDS011;4943;52.550;13.462;2023-04-03T08:01:04;151.83;;;52.33;;
9807;SDS011;4943;52.550;13.462;2023-04-03T08:03:32;159.30;;;54.57;;
9807;SDS011;4943;52.550;13.462;2023-04-03T08:06:01;158.87;;;54.07;;
9807;SDS011;4943;52.550;13.462;2023-04-03T08:08:33;159.07;;;53.97;;
9807;SDS011;4943;52.550;13.462;2023-04-03T08:11:02;158.63;;;53.50;;
9807;SDS011;4943;52.550;13.462;2023-04-03T08:13:31;162.17;;;55.77;;
9807;SDS011;4943;52.550;13.462;2023-04-03T08:16:07;165.07;;;54.00;;
9807;SDS011;4943;52.550;13.462;2023-04-03T08:18:36;155.83;;;52.70;;
9807;SDS011;4943;52.550;13.462;2023-04-03T08:21:06;160.43;;;55.47;;
9807;SDS011;4943;52.550;13.462;2023-04-03T08:23:36;151.53;;;53.07;;
9807;SDS011;4943;52.550;13.462;2023-04-03T08:26:08;157.33;;;54.13;;
9807;SDS011;4943;52.550;13.462;2023-04-03T08:28:38;152.60;;;54.83;;
9807;SDS011;4943;52.550;13.462;2023-04-03T08:31:07;156.40;;;53.37;;
9807;SDS011;4943;52.550;13.462;2023-04-03T08:33:39;156.20;;;54.83;;
9807;SDS011;4943;52.550;13.462;2023-04-03T08:36:14;156.80;;;55.23;;
9807;SDS011;4943;52.550;13.462;2023-04-03T08:38:46;156.40;;;54.77;;
9807;SDS011;4943;52.550;13.462;2023-04-03T08:41:15;160.07;;;55.90;;
9807;SDS011;4943;52.550;13.462;2023-04-03T08:43:53;160.10;;;53.63;;
9807;SDS011;4943;52.550;13.462;2023-04-03T08:46:32;162.83;;;57.70;;
9807;SDS011;4943;52.550;13.462;2023-04-03T08:49:10;158.73;;;54.30;;
9807;SDS011;4943;52.550;13.462;2023-04-03T08:51:46;162.33;;;55.63;;
9807;SDS011;4943;52.550;13.462;2023-04-03T08:54:20;158.47;;;54.87;;
9807;SDS011;4943;52.550;13.462;2023-04-03T08:56:52;165.80;;;56.97;;
9807;SDS011;4943;52.550;13.462;2023-04-03T08:59:24;165.00;;;58.23;;
9807;SDS011;4943;52.550;13.462;2023-04-03T09:01:57;161.60;;;56.47;;
9807;SDS011;4943;52.550;13.462;2023-04-03T09:04:28;166.63;;;60.87;;
9807;SDS011;4943;52.550;13.462;2023-04-03T09:07:02;171.70;;;59.00;;
9807;SDS011;4943;52.550;13.462;2023-04-03T09:09:36;169.63;;;57.93;;
9807;SDS011;4943;52.550;13.462;2023-04-03T09:12:12;169.47;;;57.10;;
9807;SDS011;4943;52.550;13.462;2023-04-03T09:14:46;169.57;;;58.67;;
9807;SDS011;4943;52.550;13.462;2023-04-03T09:17:28;173.43;;;62.07;;
9807;SDS011;4943;52.550;13.462;2023-04-03T09:20:07;167.07;;;58.50;;
9807;SDS011;4943;52.550;13.462;2023-04-03T09:22:46;174.70;;;62.93;;
9807;SDS011;4943;52.550;13.462;2023-04-03T09:25:20;174.20;;;62.10;;
9807;SDS011;4943;52.550;13.462;2023-04-03T09:27:50;176.23;;;62.03;;
9807;SDS011;4943;52.550;13.462;2023-04-03T09:30:19;186.33;;;66.23;;
9807;SDS011;4943;52.550;13.462;2023-04-03T09:32:49;188.17;;;66.87;;
9807;SDS011;4943;52.550;13.462;2023-04-03T09:35:20;191.47;;;65.83;;
9807;SDS011;4943;52.550;13.462;2023-04-03T09:38:14;182.57;;;63.47;;
9807;SDS011;4943;52.550;13.462;2023-04-03T09:40:46;182.13;;;63.43;;
9807;SDS011;4943;52.550;13.462;2023-04-03T09:43:20;179.83;;;63.40;;
9807;SDS011;4943;52.550;13.462;2023-04-03T09:45:51;179.40;;;63.03;;
9807;SDS011;4943;52.550;13.462;2023-04-03T09:48:21;180.80;;;66.87;;
9807;SDS011;4943;52.550;13.462;2023-04-03T09:50:54;182.80;;;65.33;;
9807;SDS011;4943;52.550;13.462;2023-04-03T09:53:33;173.60;;;65.10;;
9807;SDS011;4943;52.550;13.462;2023-04-03T09:56:09;171.07;;;63.30;;
9807;SDS011;4943;52.550;13.462;2023-04-03T09:58:48;180.63;;;64.77;;
9807;SDS011;4943;52.550;13.462;2023-04-03T10:01:22;176.37;;;64.10;;
9807;SDS011;4943;52.550;13.462;2023-04-03T10:04:06;162.17;;;63.57;;
9807;SDS011;4943;52.550;13.462;2023-04-03T10:06:37;165.90;;;65.37;;
9807;SDS011;4943;52.550;13.462;2023-04-03T10:09:16;185.43;;;68.77;;
9807;SDS011;4943;52.550;13.462;2023-04-03T10:12:03;204.03;;;71.73;;
9807;SDS011;4943;52.550;13.462;2023-04-03T10:14:33;181.23;;;70.40;;
9807;SDS011;4943;52.550;13.462;2023-04-03T10:17:05;177.67;;;68.67;;
9807;SDS011;4943;52.550;13.462;2023-04-03T10:19:42;181.57;;;71.73;;
9807;SDS011;4943;52.550;13.462;2023-04-03T10:22:15;180.87;;;71.20;;
9807;SDS011;4943;52.550;13.462;2023-04-03T10:24:49;187.33;;;73.77;;
9807;SDS011;4943;52.550;13.462;2023-04-03T10:27:26;189.00;;;74.07;;
9807;SDS011;4943;52.550;13.462;2023-04-03T10:30:08;186.43;;;72.77;;
9807;SDS011;4943;52.550;13.462;2023-04-03T10:32:50;178.17;;;70.57;;
9807;SDS011;4943;52.550;13.462;2023-04-03T10:35:28;185.37;;;75.63;;
9807;SDS011;4943;52.550;13.462;2023-04-03T10:38:08;204.87;;;79.13;;
9807;SDS011;4943;52.550;13.462;2023-04-03T10:40:46;190.10;;;74.97;;
9807;SDS011;4943;52.550;13.462;2023-04-03T10:43:23;190.47;;;78.93;;
9807;SDS011;4943;52.550;13.462;2023-04-03T10:46:00;191.60;;;77.60;;
9807;SDS011;4943;52.550;13.462;2023-04-03T10:48:34;190.53;;;78.17;;
9807;SDS011;4943;52.550;13.462;2023-04-03T10:51:16;205.07;;;85.90;;
9807;SDS011;4943;52.550;13.462;2023-04-03T10:53:52;205.50;;;83.27;;
9807;SDS011;4943;52.550;13.462;2023-04-03T10:56:31;214.73;;;88.73;;
9807;SDS011;4943;52.550;13.462;2023-04-03T10:59:07;204.87;;;83.20;;
9807;SDS011;4943;52.550;13.462;2023-04-03T11:01:44;191.30;;;82.13;;
9807;SDS011;4943;52.550;13.462;2023-04-03T11:04:16;192.90;;;83.80;;
9807;SDS011;4943;52.550;13.462;2023-04-03T11:06:48;196.83;;;82.57;;
9807;SDS011;4943;52.550;13.462;2023-04-03T11:09:22;202.43;;;84.43;;
9807;SDS011;4943;52.550;13.462;2023-04-03T11:11:55;199.53;;;80.03;;
9807;SDS011;4943;52.550;13.462;2023-04-03T11:14:30;200.07;;;84.23;;
9807;SDS011;4943;52.550;13.462;2023-04-03T11:17:15;197.70;;;80.97;;
9807;SDS011;4943;52.550;13.462;2023-04-03T11:19:52;195.07;;;78.93;;
9807;SDS011;4943;52.550;13.462;2023-04-03T11:22:29;192.67;;;79.47;;
9807;SDS011;4943;52.550;13.462;2023-04-03T11:25:02;193.20;;;76.90;;
9807;SDS011;4943;52.550;13.462;2023-04-03T11:27:37;197.97;;;81.23;;
9807;SDS011;4943;52.550;13.462;2023-04-03T11:30:13;195.87;;;79.20;;
9807;SDS011;4943;52.550;13.462;2023-04-03T11:32:50;195.97;;;79.17;;
9807;SDS011;4943;52.550;13.462;2023-04-03T11:35:29;202.90;;;80.47;;
9807;SDS011;4943;52.550;13.462;2023-04-03T11:37:59;205.67;;;81.23;;
9807;SDS011;4943;52.550;13.462;2023-04-03T11:40:32;208.57;;;82.90;;
9807;SDS011;4943;52.550;13.462;2023-04-03T11:43:05;207.30;;;82.70;;
9807;SDS011;4943;52.550;13.462;2023-04-03T11:45:37;210.37;;;83.77;;
9807;SDS011;4943;52.550;13.462;2023-04-03T12:03:33;232.67;;;83.67;;
9807;SDS011;4943;52.550;13.462;2023-04-03T12:09:23;227.37;;;83.77;;
9807;SDS011;4943;52.550;13.462;2023-04-03T12:11:54;221.00;;;83.93;;
9807;SDS011;4943;52.550;13.462;2023-04-03T12:14:24;225.93;;;84.30;;
9807;SDS011;4943;52.550;13.462;2023-04-03T12:16:56;224.27;;;79.73;;
9807;SDS011;4943;52.550;13.462;2023-04-03T12:19:28;229.20;;;84.17;;
9807;SDS011;4943;52.550;13.462;2023-04-03T12:22:12;225.80;;;80.67;;
9807;SDS011;4943;52.550;13.462;2023-04-03T12:24:42;224.17;;;80.90;;
9807;SDS011;4943;52.550;13.462;2023-04-03T12:27:17;215.53;;;81.43;;
9807;SDS011;4943;52.550;13.462;2023-04-03T12:29:52;217.00;;;79.90;;
9807;SDS011;4943;52.550;13.462;2023-04-03T12:32:36;218.50;;;81.97;;
9807;SDS011;4943;52.550;13.462;2023-04-03T12:35:19;221.97;;;83.23;;
9807;SDS011;4943;52.550;13.462;2023-04-03T12:41:10;223.60;;;82.00;;
9807;SDS011;4943;52.550;13.462;2023-04-03T12:43:59;226.27;;;83.57;;
9807;SDS011;4943;52.550;13.462;2023-04-03T12:46:37;226.50;;;83.80;;
9807;SDS011;4943;52.550;13.462;2023-04-03T12:49:14;233.17;;;86.07;;
9807;SDS011;4943;52.550;13.462;2023-04-03T12:51:52;229.17;;;85.93;;
9807;SDS011;4943;52.550;13.462;2023-04-03T12:54:22;228.57;;;84.57;;
9807;SDS011;4943;52.550;13.462;2023-04-03T12:57:08;229.17;;;84.80;;
9807;SDS011;4943;52.550;13.462;2023-04-03T12:59:37;223.43;;;83.77;;
9807;SDS011;4943;52.550;13.462;2023-04-03T13:02:10;226.53;;;83.93;;
9807;SDS011;4943;52.550;13.462;2023-04-03T13:04:49;219.07;;;81.97;;
9807;SDS011;4943;52.550;13.462;2023-04-03T13:07:19;218.50;;;80.17;;
9807;SDS011;4943;52.550;13.462;2023-04-03T13:09:55;224.27;;;79.90;;
9807;SDS011;4943;52.550;13.462;2023-04-03T13:12:25;217.20;;;81.33;;
9807;SDS011;4943;52.550;13.462;2023-04-03T13:14:56;211.27;;;77.80;;
9807;SDS011;4943;52.550;13.462;2023-04-03T13:17:27;212.17;;;78.63;;
9807;SDS011;4943;52.550;13.462;2023-04-03T13:19:57;214.77;;;77.57;;
9807;SDS011;4943;52.550;13.462;2023-04-03T13:22:38;214.50;;;81.20;;
9807;SDS011;4943;52.550;13.462;2023-04-03T13:25:11;211.80;;;78.13;;
9807;SDS011;4943;52.550;13.462;2023-04-03T13:27:42;214.93;;;78.57;;
9807;SDS011;4943;52.550;13.462;2023-04-03T13:30:21;211.60;;;78.77;;
9807;SDS011;4943;52.550;13.462;2023-04-03T13:32:53;219.87;;;78.37;;
9807;SDS011;4943;52.550;13.462;2023-04-03T13:35:32;217.10;;;78.20;;
9807;SDS011;4943;52.550;13.462;2023-04-03T13:38:04;216.47;;;79.00;;
9807;SDS011;4943;52.550;13.462;2023-04-03T13:40:45;218.37;;;79.83;;
9807;SDS011;4943;52.550;13.462;2023-04-03T13:43:19;222.60;;;77.87;;
9807;SDS011;4943;52.550;13.462;2023-04-03T13:45:56;223.70;;;81.43;;
9807;SDS011;4943;52.550;13.462;2023-04-03T13:48:35;222.50;;;82.13;;
9807;SDS011;4943;52.550;13.462;2023-04-03T13:51:12;217.40;;;78.80;;
9807;SDS011;4943;52.550;13.462;2023-04-03T13:53:46;214.00;;;76.57;;
9807;SDS011;4943;52.550;13.462;2023-04-03T13:56:18;221.70;;;78.80;;
9807;SDS011;4943;52.550;13.462;2023-04-03T13:58:53;230.07;;;78.23;;
9807;SDS011;4943;52.550;13.462;2023-04-03T14:01:41;229.07;;;80.97;;
9807;SDS011;4943;52.550;13.462;2023-04-03T14:04:13;217.20;;;78.03;;
9807;SDS011;4943;52.550;13.462;2023-04-03T14:06:45;223.00;;;82.03;;
9807;SDS011;4943;52.550;13.462;2023-04-03T14:09:15;222.20;;;80.37;;
9807;SDS011;4943;52.550;13.462;2023-04-03T14:11:43;227.97;;;80.50;;
9807;SDS011;4943;52.550;13.462;2023-04-03T14:14:15;227.53;;;81.80;;
9807;SDS011;4943;52.550;13.462;2023-04-03T14:16:46;234.80;;;84.77;;
9807;SDS011;4943;52.550;13.462;2023-04-03T14:19:19;242.23;;;84.30;;
9807;SDS011;4943;52.550;13.462;2023-04-03T14:21:51;221.07;;;80.87;;
9807;SDS011;4943;52.550;13.462;2023-04-03T14:24:22;235.30;;;82.87;;
9807;SDS011;4943;52.550;13.462;2023-04-03T14:26:51;236.90;;;85.97;;
9807;SDS011;4943;52.550;13.462;2023-04-03T14:29:21;238.27;;;87.13;;
9807;SDS011;4943;52.550;13.462;2023-04-03T14:31:49;246.30;;;87.80;;
9807;SDS011;4943;52.550;13.462;2023-04-03T14:34:37;243.90;;;89.37;;
9807;SDS011;4943;52.550;13.462;2023-04-03T14:37:08;248.37;;;88.80;;
9807;SDS011;4943;52.550;13.462;2023-04-03T14:39:37;252.13;;;88.80;;
9807;SDS011;4943;52.550;13.462;2023-04-03T14:42:09;243.37;;;86.67;;
9807;SDS011;4943;52.550;13.462;2023-04-03T14:44:39;244.03;;;85.63;;
9807;SDS011;4943;52.550;13.462;2023-04-03T14:47:09;243.27;;;83.83;;
9807;SDS011;4943;52.550;13.462;2023-04-03T14:49:55;236.97;;;81.23;;
9807;SDS011;4943;52.550;13.462;2023-04-03T14:52:26;185.47;;;75.43;;
9807;SDS011;4943;52.550;13.462;2023-04-03T14:54:57;225.27;;;77.57;;
9807;SDS011;4943;52.550;13.462;2023-04-03T14:57:27;227.37;;;76.50;;
9807;SDS011;4943;52.550;13.462;2023-04-03T15:00:02;227.50;;;73.70;;
9807;SDS011;4943;52.550;13.462;2023-04-03T15:02:32;223.33;;;76.10;;
9807;SDS011;4943;52.550;13.462;2023-04-03T15:05:03;215.87;;;71.70;;
9807;SDS011;4943;52.550;13.462;2023-04-03T15:07:35;221.30;;;75.53;;
9807;SDS011;4943;52.550;13.462;2023-04-03T15:10:13;214.43;;;71.27;;